Time;durP1;ratioP1;P1;durP2;ratioP2;P2;SDS_P1;SDS_P2;PMS_P1;PMS_P2;Temp;Humidity;BMP_temperature;BMP_pressure;BME280_temperature;BME280_humidity;BME280_pressure;Samples;Min_cycle;Max_cycle;Signal;HPM_P1;HPM_P2
2023/07/16 00:01:59;;;;;;;;;;;;;;;;;;5091366;28;20336;-71
2023/07/16 00:04:25;;;;;;;;;;;;;;;;;;5090229;28;19924;-73
2023/07/16 00:06:53;;;;;;;;;;;;;;;;;;5090649;28;19935;-71
2023/07/16 00:09:19;;;;;;;;;;;;;;;;;;5090790;28;19924;-72
2023/07/16 00:11:46;;;;;;;;;;;;;;;;;;5090026;28;19934;-71
2023/07/16 00:14:12;;;;;;;;;;;;;;;;;;5090738;28;20388;-71
2023/07/16 00:16:39;;;;;;;;;;;;;;;;;;5094531;28;19927;-72
2023/07/16 00:19:05;;;;;;;;;;;;;;;;;;5094535;28;19924;-71
2023/07/16 00:21:32;;;;;;;;;;;;;;;;;;5093868;28;19928;-71
2023/07/16 00:23:59;;;;;;;;;;;;;;;;;;5094942;28;19971;-72
2023/07/16 00:26:26;;;;;;;;;;;;;;;;;;5094399;28;20407;-71
2023/07/16 00:28:52;;;;;;;;;;;;;;;;;;5094793;28;19936;-71
2023/07/16 00:31:18;;;;;;;;;;;;;;;;;;5094528;28;19924;-71
2023/07/16 00:33:45;;;;;;;;;;;;;;;;;;5094939;28;19934;-71
2023/07/16 00:36:11;;;;;;;;;;;;;;;;;;5094311;28;19924;-71
2023/07/16 00:38:39;;;;;;;;;;;;;;;;;;5094451;28;19924;-71
2023/07/16 00:41:07;;;;;;;;;;;;;;;;;;5094645;28;19924;-71
2023/07/16 00:43:34;;;;;;;;;;;;;;;;;;5094235;28;19924;-72
2023/07/16 00:46:00;;;;;;;;;;;;;;;;;;5094492;28;20373;-72
2023/07/16 00:48:27;;;;;;;;;;;;;;;;;;5094170;28;19924;-71
2023/07/16 00:50:54;;;;;;;;;;;;;;;;;;5094002;28;19924;-71
2023/07/16 00:53:21;;;;;;;;;;;;;;;;;;5093705;28;20199;-71
2023/07/16 00:55:47;;;;;;;;;;;;;;;;;;5094454;28;19932;-70
2023/07/16 00:58:15;;;;;;;;;;;;;;;;;;5094011;28;19924;-71
2023/07/16 01:00:41;;;;;;;;;;;;;;;;;;5094547;28;19974;-71
2023/07/16 01:03:09;;;;;;;;;;;;;;;;;;5094896;28;20373;-71
2023/07/16 01:05:39;;;;;;;;;;;;;;;;;;5095071;28;19974;-71
2023/07/16 01:08:08;;;;;;;;;;;;;;;;;;5094539;28;19977;-71
2023/07/16 01:10:34;;;;;;;;;;;;;;;;;;5093657;28;20447;-71
2023/07/16 01:13:01;;;;;;;;;;;;;;;;;;5093683;28;20016;-72
2023/07/16 01:15:29;;;;;;;;;;;;;;;;;;5093500;28;19928;-71
2023/07/16 01:17:55;;;;;;;;;;;;;;;;;;5092356;28;19930;-71
2023/07/16 01:20:22;;;;;;;;;;;;;;;;;;5093169;28;20302;-71
2023/07/16 01:23:13;;;;;;;;;;;;;;;;;;5093735;28;19924;-71
2023/07/16 01:25:49;;;;;;;;;;;;;;;;;;5092988;28;19934;-72
2023/07/16 01:28:25;;;;;;;;;;;;;;;;;;5093712;28;19924;-72
2023/07/16 01:30:54;;;;;;;;;;;;;;;;;;5093176;28;19924;-72
2023/07/16 01:33:21;;;;;;;;;;;;;;;;;;5093844;28;19931;-72
2023/07/16 01:35:48;;;;;;;;;;;;;;;;;;5092908;28;19931;-72
2023/07/16 01:38:16;;;;;;;;;;;;;;;;;;5093132;28;20602;-72
2023/07/16 01:40:42;;;;;;;;;;;;;;;;;;5092836;28;20297;-72
2023/07/16 01:43:08;;;;;;;;;;;;;;;;;;5093483;28;20516;-72
2023/07/16 01:45:35;;;;;;;;;;;;;;;;;;5092950;28;19924;-72
2023/07/16 01:48:06;;;;;;;;;;;;;;;;;;5093434;28;19983;-72
2023/07/16 01:50:33;;;;;;;;;;;;;;;;;;5092509;28;19934;-72
2023/07/16 01:52:59;;;;;;;;;;;;;;;;;;5093253;28;19935;-72
2023/07/16 01:55:25;;;;;;;;;;;;;;;;;;5093034;28;20368;-71
2023/07/16 01:57:52;;;;;;;;;;;;;;;;;;5093171;28;19924;-71
2023/07/16 02:00:18;;;;;;;;;;;;;;;;;;5092697;28;19924;-71
2023/07/16 02:02:45;;;;;;;;;;;;;;;;;;5092464;28;19997;-72
2023/07/16 02:05:12;;;;;;;;;;;;;;;;;;5093202;28;19924;-72
2023/07/16 02:07:39;;;;;;;;;;;;;;;;;;5092704;28;20022;-72
2023/07/16 02:10:06;;;;;;;;;;;;;;;;;;5092656;28;19924;-72
2023/07/16 02:12:32;;;;;;;;;;;;;;;;;;5092506;28;20270;-72
2023/07/16 02:14:58;;;;;;;;;;;;;;;;;;5092864;28;20316;-72
2023/07/16 02:17:25;;;;;;;;;;;;;;;;;;5092163;28;19931;-72
2023/07/16 02:19:51;;;;;;;;;;;;;;;;;;5081221;28;20378;-72
2023/07/16 02:22:19;;;;;;;;;;;;;;;;;;5072238;28;19924;-72
2023/07/16 02:24:45;;;;;;;;;;;;;;;;;;5072276;28;20152;-72
2023/07/16 02:27:12;;;;;;;;;;;;;;;;;;5071469;28;19924;-72
2023/07/16 02:29:38;;;;;;;;;;;;;;;;;;5071928;28;20404;-72
2023/07/16 02:32:05;;;;;;;;;;;;;;;;;;5072421;28;19925;-72
2023/07/16 02:34:31;;;;;;;;;;;;;;;;;;5071465;28;19968;-72
2023/07/16 02:36:58;;;;;;;;;;;;;;;;;;5071516;28;20366;-72
2023/07/16 02:39:26;;;;;;;;;;;;;;;;;;5071387;28;19986;-72
2023/07/16 02:41:52;;;;;;;;;;;;;;;;;;5071799;28;20320;-72
2023/07/16 02:44:18;;;;;;;;;;;;;;;;;;5071483;28;20447;-71
2023/07/16 02:46:45;;;;;;;;;;;;;;;;;;5071601;28;19954;-72
2023/07/16 02:49:11;;;;;;;;;;;;;;;;;;5071074;28;19945;-72
2023/07/16 02:51:38;;;;;;;;;;;;;;;;;;5071633;28;20400;-72
2023/07/16 02:54:04;;;;;;;;;;;;;;;;;;5071388;28;20329;-72
2023/07/16 02:56:32;;;;;;;;;;;;;;;;;;5072058;28;20135;-72
2023/07/16 02:58:58;;;;;;;;;;;;;;;;;;5071314;28;20421;-72
2023/07/16 03:01:24;;;;;;;;;;;;;;;;;;5071158;28;20174;-73
2023/07/16 03:03:51;;;;;;;;;;;;;;;;;;5071348;28;20394;-72
2023/07/16 03:06:17;;;;;;;;;;;;;;;;;;5071440;28;19924;-71
2023/07/16 03:08:45;;;;;;;;;;;;;;;;;;5071453;28;20435;-72
2023/07/16 03:11:11;;;;;;;;;;;;;;;;;;5070756;28;19932;-72
2023/07/16 03:13:39;;;;;;;;;;;;;;;;;;5071258;28;19930;-72
2023/07/16 03:16:05;;;;;;;;;;;;;;;;;;5070387;28;19924;-72
2023/07/16 03:18:32;;;;;;;;;;;;;;;;;;5071332;28;19924;-72
2023/07/16 03:20:59;;;;;;;;;;;;;;;;;;5070695;28;19924;-72
2023/07/16 03:23:25;;;;;;;;;;;;;;;;;;5091491;28;19931;-72
2023/07/16 03:25:52;;;;;;;;;;;;;;;;;;5090640;28;19931;-72
2023/07/16 03:28:18;;;;;;;;;;;;;;;;;;5091376;28;20399;-72
2023/07/16 03:30:47;;;;;;;;;;;;;;;;;;5090016;28;19924;-72
2023/07/16 03:33:13;;;;;;;;;;;;;;;;;;5091512;28;19924;-72
2023/07/16 03:35:40;;;;;;;;;;;;;;;;;;5090983;28;19930;-72
2023/07/16 03:38:06;;;;;;;;;;;;;;;;;;5091495;28;20295;-72
2023/07/16 03:40:33;;;;;;;;;;;;;;;;;;5090999;28;19924;-72
2023/07/16 03:42:59;;;;;;;;;;;;;;;;;;5090680;28;19924;-72
2023/07/16 03:45:25;;;;;;;;;;;;;;;;;;5090763;28;19924;-72
2023/07/16 03:47:53;;;;;;;;;;;;;;;;;;5093154;22;20318;-68
2023/07/16 03:50:20;;;;;;;;;;;;;;;;;;5030006;28;19929;-68
2023/07/16 03:52:46;;;;;;;;;;;;;;;;;;5030378;28;19932;-69
2023/07/16 03:55:13;;;;;;;;;;;;;;;;;;5030759;28;19925;-69
2023/07/16 03:57:39;;;;;;;;;;;;;;;;;;5030011;28;19925;-68
2023/07/16 04:00:08;;;;;;;;;;;;;;;;;;5030075;28;19936;-68
2023/07/16 04:02:35;;;;;;;;;;;;;;;;;;5030855;28;19932;-68
2023/07/16 04:05:03;;;;;;;;;;;;;;;;;;5031779;28;19929;-68
2023/07/16 04:07:30;;;;;;;;;;;;;;;;;;5030735;28;19926;-68
2023/07/16 04:09:56;;;;;;;;;;;;;;;;;;5030894;28;19925;-68
2023/07/16 04:12:23;;;;;;;;;;;;;;;;;;5030892;28;19926;-68
2023/07/16 04:14:49;;;;;;;;;;;;;;;;;;5030271;28;20004;-68
2023/07/16 04:17:16;;;;;;;;;;;;;;;;;;5030703;28;19932;-68
2023/07/16 04:19:42;;;;;;;;;;;;;;;;;;5029848;28;19924;-69
2023/07/16 04:22:10;;;;;;;;;;;;;;;;;;5030874;28;19937;-68
2023/07/16 04:24:36;;;;;;;;;;;;;;;;;;5029910;28;19925;-68
2023/07/16 04:27:03;;;;;;;;;;;;;;;;;;5030159;28;19975;-68
2023/07/16 04:29:29;;;;;;;;;;;;;;;;;;5031121;28;19925;-68
2023/07/16 04:31:56;;;;;;;;;;;;;;;;;;5029256;28;20313;-67
2023/07/16 04:34:22;;;;;;;;;;;;;;;;;;5029957;28;19972;-68
2023/07/16 04:36:49;;;;;;;;;;;;;;;;;;5030170;28;19931;-68
2023/07/16 04:39:16;;;;;;;;;;;;;;;;;;5029689;28;19931;-68
2023/07/16 04:41:43;;;;;;;;;;;;;;;;;;5029663;28;19925;-68
2023/07/16 04:44:09;;;;;;;;;;;;;;;;;;5030177;28;19925;-68
2023/07/16 04:46:36;;;;;;;;;;;;;;;;;;5029981;28;20395;-68
2023/07/16 04:49:02;;;;;;;;;;;;;;;;;;5030072;28;19965;-68
2023/07/16 04:51:29;;;;;;;;;;;;;;;;;;5029392;28;19932;-68
2023/07/16 04:53:55;;;;;;;;;;;;;;;;;;5029933;28;20393;-68
2023/07/16 04:56:23;;;;;;;;;;;;;;;;;;5029417;28;19929;-68
2023/07/16 04:58:49;;;;;;;;;;;;;;;;;;5029816;28;19931;-68
2023/07/16 05:01:16;;;;;;;;;;;;;;;;;;5032051;28;19925;-68
2023/07/16 05:03:42;;;;;;;;;;;;;;;;;;5033749;28;19925;-68
2023/07/16 05:06:08;;;;;;;;;;;;;;;;;;5033306;28;20379;-68
2023/07/16 05:08:35;;;;;;;;;;;;;;;;;;5033442;28;19948;-68
2023/07/16 05:11:02;;;;;;;;;;;;;;;;;;5033252;28;19925;-68
2023/07/16 05:13:29;;;;;;;;;;;;;;;;;;5034017;28;19926;-68
2023/07/16 05:15:56;;;;;;;;;;;;;;;;;;5033345;28;19931;-68
2023/07/16 05:18:22;;;;;;;;;;;;;;;;;;5032764;28;19932;-68
2023/07/16 05:20:49;;;;;;;;;;;;;;;;;;5032792;28;19979;-68
2023/07/16 05:23:15;;;;;;;;;;;;;;;;;;5032905;28;19925;-68
2023/07/16 05:25:46;;;;;;;;;;;;;;;;;;5033157;28;19925;-68
2023/07/16 05:28:12;;;;;;;;;;;;;;;;;;5032584;28;19925;-68
2023/07/16 05:30:40;;;;;;;;;;;;;;;;;;5032971;28;20418;-68
2023/07/16 05:33:06;;;;;;;;;;;;;;;;;;5033163;28;19925;-68
2023/07/16 05:35:32;;;;;;;;;;;;;;;;;;5033003;28;19925;-68
2023/07/16 05:37:59;;;;;;;;;;;;;;;;;;5032437;28;19936;-68
2023/07/16 05:40:25;;;;;;;;;;;;;;;;;;5032817;28;20388;-68
2023/07/16 05:42:52;;;;;;;;;;;;;;;;;;5032714;28;20309;-67
2023/07/16 05:45:18;;;;;;;;;;;;;;;;;;5032760;28;19925;-68
2023/07/16 05:47:46;;;;;;;;;;;;;;;;;;5032498;28;19932;-68
2023/07/16 05:50:12;;;;;;;;;;;;;;;;;;5032290;28;19925;-68
2023/07/16 05:52:38;;;;;;;;;;;;;;;;;;5033057;28;19929;-68
2023/07/16 05:55:05;;;;;;;;;;;;;;;;;;5032485;28;19932;-68
2023/07/16 05:57:31;;;;;;;;;;;;;;;;;;5032726;28;19955;-68
2023/07/16 05:59:58;;;;;;;;;;;;;;;;;;5031878;28;19929;-68
2023/07/16 06:02:24;;;;;;;;;;;;;;;;;;5032817;28;19931;-68
2023/07/16 06:04:52;;;;;;;;;;;;;;;;;;5032041;28;20322;-68
2023/07/16 06:07:18;;;;;;;;;;;;;;;;;;5032713;28;19925;-68
2023/07/16 06:09:45;;;;;;;;;;;;;;;;;;5031687;28;19925;-68
2023/07/16 06:12:11;;;;;;;;;;;;;;;;;;5031480;28;19937;-68
2023/07/16 06:14:38;;;;;;;;;;;;;;;;;;5032542;28;19925;-68
2023/07/16 06:17:04;;;;;;;;;;;;;;;;;;5032217;28;19925;-68
2023/07/16 06:19:31;;;;;;;;;;;;;;;;;;5031500;28;19925;-68
2023/07/16 06:21:59;;;;;;;;;;;;;;;;;;5031673;28;19925;-68
2023/07/16 06:24:25;;;;;;;;;;;;;;;;;;5032162;28;19925;-68
2023/07/16 06:26:51;;;;;;;;;;;;;;;;;;5032443;28;20371;-68
2023/07/16 06:29:18;;;;;;;;;;;;;;;;;;5031948;28;19972;-68
2023/07/16 06:31:54;;;;;;;;;;;;;;;;;;5031036;28;19931;-68
2023/07/16 06:34:21;;;;;;;;;;;;;;;;;;5033140;28;19925;-68
2023/07/16 06:36:48;;;;;;;;;;;;;;;;;;5032460;28;19925;-68
2023/07/16 06:39:15;;;;;;;;;;;;;;;;;;5032210;28;19931;-68
2023/07/16 06:41:42;;;;;;;;;;;;;;;;;;5030961;28;20375;-68
2023/07/16 06:44:08;;;;;;;;;;;;;;;;;;5032300;28;20336;-68
2023/07/16 06:46:35;;;;;;;;;;;;;;;;;;5031016;28;20297;-68
2023/07/16 06:49:01;;;;;;;;;;;;;;;;;;5031508;28;19947;-68
2023/07/16 06:51:29;;;;;;;;;;;;;;;;;;5031047;28;19925;-68
2023/07/16 06:53:55;;;;;;;;;;;;;;;;;;5031597;28;19925;-68
2023/07/16 06:56:23;;;;;;;;;;;;;;;;;;5031038;28;20298;-68
2023/07/16 06:58:49;;;;;;;;;;;;;;;;;;5031357;28;19925;-68
2023/07/16 07:01:16;;;;;;;;;;;;;;;;;;5031190;28;20016;-68
2023/07/16 07:03:42;;;;;;;;;;;;;;;;;;5031364;28;19925;-68
2023/07/16 07:06:10;;;;;;;;;;;;;;;;;;5032382;28;20418;-68
2023/07/16 07:08:37;;;;;;;;;;;;;;;;;;5031706;28;19925;-68
2023/07/16 07:11:05;;;;;;;;;;;;;;;;;;5032501;28;19925;-68
2023/07/16 07:13:34;;;;;;;;;;;;;;;;;;5033303;28;19932;-68
2023/07/16 07:16:00;;;;;;;;;;;;;;;;;;5032686;28;19941;-68
2023/07/16 07:18:29;;;;;;;;;;;;;;;;;;5032619;28;20016;-69
2023/07/16 07:20:56;;;;;;;;;;;;;;;;;;5032191;28;19925;-68
2023/07/16 07:23:22;;;;;;;;;;;;;;;;;;5031436;28;20007;-68
2023/07/16 07:25:49;;;;;;;;;;;;;;;;;;5031876;28;19932;-68
2023/07/16 07:28:16;;;;;;;;;;;;;;;;;;5031612;28;19971;-68
2023/07/16 07:30:45;;;;;;;;;;;;;;;;;;5031519;28;19926;-68
2023/07/16 07:33:11;;;;;;;;;;;;;;;;;;5031262;28;19925;-68
2023/07/16 07:35:38;;;;;;;;;;;;;;;;;;5031352;28;19979;-68
2023/07/16 07:38:04;;;;;;;;;;;;;;;;;;5031862;28;19929;-68
2023/07/16 07:40:32;;;;;;;;;;;;;;;;;;5031393;28;19957;-68
2023/07/16 07:42:58;;;;;;;;;;;;;;;;;;5031521;28;20365;-68
2023/07/16 07:45:25;;;;;;;;;;;;;;;;;;5029391;28;19925;-68
2023/07/16 07:47:53;;;;;;;;;;;;;;;;;;5031278;28;20302;-68
2023/07/16 07:50:19;;;;;;;;;;;;;;;;;;5030412;28;19948;-68
2023/07/16 07:52:46;;;;;;;;;;;;;;;;;;5030898;28;19925;-68
2023/07/16 07:55:13;;;;;;;;;;;;;;;;;;5030247;28;19925;-68
2023/07/16 07:57:39;;;;;;;;;;;;;;;;;;5031520;28;19929;-68
2023/07/16 08:00:11;;;;;;;;;;;;;;;;;;5030806;28;20402;-68
2023/07/16 08:02:37;;;;;;;;;;;;;;;;;;5031565;28;20302;-68
2023/07/16 08:05:06;;;;;;;;;;;;;;;;;;5030553;28;20266;-66
2023/07/16 08:07:33;;;;;;;;;;;;;;;;;;5030946;28;20317;-67
2023/07/16 08:10:00;;;;;;;;;;;;;;;;;;5029862;28;19979;-69
2023/07/16 08:12:26;;;;;;;;;;;;;;;;;;5030942;28;19925;-68
2023/07/16 08:14:52;;;;;;;;;;;;;;;;;;5031399;28;20279;-69
2023/07/16 08:17:19;;;;;;;;;;;;;;;;;;5030637;28;19925;-69
2023/07/16 08:19:45;;;;;;;;;;;;;;;;;;5030793;28;19932;-69
2023/07/16 08:22:13;;;;;;;;;;;;;;;;;;5030030;28;20140;-69
2023/07/16 08:24:40;;;;;;;;;;;;;;;;;;5030787;28;20004;-69
2023/07/16 08:27:06;;;;;;;;;;;;;;;;;;5030403;28;19925;-68
2023/07/16 08:29:33;;;;;;;;;;;;;;;;;;5031104;28;20027;-69
2023/07/16 08:32:00;;;;;;;;;;;;;;;;;;5031129;28;19947;-69
2023/07/16 08:34:27;;;;;;;;;;;;;;;;;;5031907;28;19925;-69
2023/07/16 08:36:53;;;;;;;;;;;;;;;;;;5034191;28;19925;-69
2023/07/16 08:39:22;;;;;;;;;;;;;;;;;;5034972;28;20016;-69
2023/07/16 08:41:49;;;;;;;;;;;;;;;;;;5034724;28;20402;-69
2023/07/16 08:44:16;;;;;;;;;;;;;;;;;;5034698;28;19925;-68
2023/07/16 08:46:42;;;;;;;;;;;;;;;;;;5033960;28;19925;-69
2023/07/16 08:49:09;;;;;;;;;;;;;;;;;;5034605;28;19925;-69
2023/07/16 08:51:36;;;;;;;;;;;;;;;;;;5034143;28;19983;-69
2023/07/16 08:54:02;;;;;;;;;;;;;;;;;;5034268;28;19932;-69
2023/07/16 08:56:30;;;;;;;;;;;;;;;;;;5034260;28;20429;-68
2023/07/16 08:58:56;;;;;;;;;;;;;;;;;;5034056;28;20329;-69
2023/07/16 09:01:23;;;;;;;;;;;;;;;;;;5034047;28;19929;-69
2023/07/16 09:03:50;;;;;;;;;;;;;;;;;;5033776;28;19929;-69
2023/07/16 09:06:17;;;;;;;;;;;;;;;;;;5033993;28;20341;-68
2023/07/16 09:08:43;;;;;;;;;;;;;;;;;;5034143;28;19932;-69
2023/07/16 09:11:12;;;;;;;;;;;;;;;;;;5034013;28;19925;-69
2023/07/16 09:13:44;;;;;;;;;;;;;;;;;;5033733;28;20334;-68
2023/07/16 09:16:10;;;;;;;;;;;;;;;;;;5034590;28;19925;-69
2023/07/16 09:18:38;;;;;;;;;;;;;;;;;;5033622;28;19979;-69
2023/07/16 09:21:06;;;;;;;;;;;;;;;;;;5033678;28;19979;-69
2023/07/16 09:23:33;;;;;;;;;;;;;;;;;;5034509;28;20459;-69
2023/07/16 09:25:59;;;;;;;;;;;;;;;;;;5033929;28;19931;-69
2023/07/16 09:28:25;;;;;;;;;;;;;;;;;;5033889;28;19925;-68
2023/07/16 09:30:54;;;;;;;;;;;;;;;;;;5034946;28;19971;-69
2023/07/16 09:33:22;;;;;;;;;;;;;;;;;;5034943;28;20398;-69
2023/07/16 09:35:49;;;;;;;;;;;;;;;;;;5034445;28;19925;-69
2023/07/16 09:38:16;;;;;;;;;;;;;;;;;;5034803;28;19929;-69
2023/07/16 09:40:43;;;;;;;;;;;;;;;;;;5033813;28;20383;-69
2023/07/16 09:43:10;;;;;;;;;;;;;;;;;;5034701;28;19932;-69
2023/07/16 09:45:37;;;;;;;;;;;;;;;;;;5033387;28;19925;-69
2023/07/16 09:48:08;;;;;;;;;;;;;;;;;;5048954;22;19931;-70
2023/07/16 09:50:35;;;;;;;;;;;;;;;;;;5052955;28;19929;-71
2023/07/16 09:53:03;;;;;;;;;;;;;;;;;;5052895;28;19925;-70
2023/07/16 09:55:31;;;;;;;;;;;;;;;;;;5052837;28;19924;-71
2023/07/16 09:57:58;;;;;;;;;;;;;;;;;;5052935;28;19931;-70
2023/07/16 10:00:25;;;;;;;;;;;;;;;;;;5052550;28;19925;-70
2023/07/16 10:02:52;;;;;;;;;;;;;;;;;;5053411;28;20262;-70
2023/07/16 10:05:24;;;;;;;;;;;;;;;;;;5053843;28;19928;-70
2023/07/16 10:07:51;;;;;;;;;;;;;;;;;;5052548;28;19931;-70
2023/07/16 10:10:17;;;;;;;;;;;;;;;;;;5052430;28;19924;-70
2023/07/16 10:12:44;;;;;;;;;;;;;;;;;;5052418;28;19925;-71
2023/07/16 10:15:12;;;;;;;;;;;;;;;;;;5052679;28;19924;-70
2023/07/16 10:17:39;;;;;;;;;;;;;;;;;;5052662;28;19958;-71
2023/07/16 10:20:08;;;;;;;;;;;;;;;;;;5052707;28;20213;-70
2023/07/16 10:22:37;;;;;;;;;;;;;;;;;;5052194;28;19971;-71
2023/07/16 10:25:03;;;;;;;;;;;;;;;;;;5052549;28;19925;-70
2023/07/16 10:27:31;;;;;;;;;;;;;;;;;;5052133;28;19931;-70
2023/07/16 10:29:57;;;;;;;;;;;;;;;;;;5052371;28;19931;-69
2023/07/16 10:32:27;;;;;;;;;;;;;;;;;;5052682;28;19925;-72
2023/07/16 10:34:53;;;;;;;;;;;;;;;;;;5052463;28;19947;-70
2023/07/16 10:37:20;;;;;;;;;;;;;;;;;;5052578;28;19971;-70
2023/07/16 10:39:48;;;;;;;;;;;;;;;;;;5051281;28;20121;-71
2023/07/16 10:42:16;;;;;;;;;;;;;;;;;;5052706;28;20401;-70
2023/07/16 10:44:42;;;;;;;;;;;;;;;;;;5052092;28;20408;-69
2023/07/16 10:47:09;;;;;;;;;;;;;;;;;;5052395;28;19929;-70
2023/07/16 10:49:36;;;;;;;;;;;;;;;;;;5051903;28;19928;-70
2023/07/16 10:52:02;;;;;;;;;;;;;;;;;;5052431;28;19931;-70
2023/07/16 10:54:29;;;;;;;;;;;;;;;;;;5063990;28;20301;-70
2023/07/16 10:56:57;;;;;;;;;;;;;;;;;;5072063;28;19931;-70
2023/07/16 10:59:23;;;;;;;;;;;;;;;;;;5071243;28;19925;-70
2023/07/16 11:01:49;;;;;;;;;;;;;;;;;;5071781;28;20015;-70
2023/07/16 11:04:16;;;;;;;;;;;;;;;;;;5072063;28;19950;-71
2023/07/16 11:06:42;;;;;;;;;;;;;;;;;;5071392;28;19935;-70
2023/07/16 11:09:09;;;;;;;;;;;;;;;;;;5071900;28;19931;-70
2023/07/16 11:11:35;;;;;;;;;;;;;;;;;;5070985;28;19924;-70
2023/07/16 11:14:05;;;;;;;;;;;;;;;;;;5071900;28;20019;-69
2023/07/16 11:16:33;;;;;;;;;;;;;;;;;;5071111;28;19924;-70
2023/07/16 11:19:01;;;;;;;;;;;;;;;;;;5071471;28;19924;-70
2023/07/16 11:21:28;;;;;;;;;;;;;;;;;;5070425;28;19935;-70
2023/07/16 11:23:54;;;;;;;;;;;;;;;;;;5071413;28;20007;-70
2023/07/16 11:26:21;;;;;;;;;;;;;;;;;;5071654;28;20007;-70
2023/07/16 11:28:50;;;;;;;;;;;;;;;;;;5071400;28;19925;-70
2023/07/16 11:31:18;;;;;;;;;;;;;;;;;;5070871;28;19925;-71
2023/07/16 11:33:44;;;;;;;;;;;;;;;;;;5071326;28;19924;-71
2023/07/16 11:36:11;;;;;;;;;;;;;;;;;;5070686;28;19931;-70
2023/07/16 11:38:39;;;;;;;;;;;;;;;;;;5070872;28;20288;-70
2023/07/16 11:41:05;;;;;;;;;;;;;;;;;;5070948;28;20270;-70
2023/07/16 11:43:34;;;;;;;;;;;;;;;;;;5070891;28;19930;-70
2023/07/16 11:46:01;;;;;;;;;;;;;;;;;;5071360;28;19925;-71
2023/07/16 11:48:29;;;;;;;;;;;;;;;;;;5070675;28;19925;-71
2023/07/16 11:50:55;;;;;;;;;;;;;;;;;;5070764;28;19924;-71
2023/07/16 11:53:21;;;;;;;;;;;;;;;;;;5070789;28;19926;-71
2023/07/16 11:55:48;;;;;;;;;;;;;;;;;;5071406;28;19928;-69
2023/07/16 11:58:14;;;;;;;;;;;;;;;;;;5069111;28;19932;-70
2023/07/16 12:00:40;;;;;;;;;;;;;;;;;;5070844;28;20305;-70
2023/07/16 12:03:07;;;;;;;;;;;;;;;;;;5070372;28;19935;-69
2023/07/16 12:05:35;;;;;;;;;;;;;;;;;;5071199;28;20404;-69
2023/07/16 12:08:01;;;;;;;;;;;;;;;;;;5070476;28;19924;-70
2023/07/16 12:10:27;;;;;;;;;;;;;;;;;;5069774;28;19935;-69
2023/07/16 12:12:54;;;;;;;;;;;;;;;;;;5071379;28;19925;-69
2023/07/16 12:15:20;;;;;;;;;;;;;;;;;;5070373;28;19924;-70
2023/07/16 12:17:46;;;;;;;;;;;;;;;;;;5070718;28;20420;-70
2023/07/16 12:20:13;;;;;;;;;;;;;;;;;;5070424;28;19939;-70
2023/07/16 12:22:40;;;;;;;;;;;;;;;;;;5070678;28;19924;-70
2023/07/16 12:25:07;;;;;;;;;;;;;;;;;;5070393;28;19935;-71
2023/07/16 12:27:34;;;;;;;;;;;;;;;;;;5070556;28;19931;-70
2023/07/16 12:30:00;;;;;;;;;;;;;;;;;;5070083;28;20381;-71
2023/07/16 12:32:26;;;;;;;;;;;;;;;;;;5070769;28;19935;-70
2023/07/16 12:34:54;;;;;;;;;;;;;;;;;;5070432;28;20405;-70
2023/07/16 12:37:21;;;;;;;;;;;;;;;;;;5070733;28;19948;-69
2023/07/16 12:39:49;;;;;;;;;;;;;;;;;;5069907;28;19968;-69
2023/07/16 12:42:15;;;;;;;;;;;;;;;;;;5070538;28;19925;-70
2023/07/16 12:44:41;;;;;;;;;;;;;;;;;;5070363;28;20299;-69
2023/07/16 12:47:08;;;;;;;;;;;;;;;;;;5070093;28;20019;-71
2023/07/16 12:49:35;;;;;;;;;;;;;;;;;;5070158;28;19986;-70
2023/07/16 12:52:01;;;;;;;;;;;;;;;;;;5070312;28;19924;-70
2023/07/16 12:54:28;;;;;;;;;;;;;;;;;;5070639;28;19932;-70
2023/07/16 12:56:56;;;;;;;;;;;;;;;;;;5069743;28;19924;-70
2023/07/16 12:59:24;;;;;;;;;;;;;;;;;;5070586;28;19925;-71
2023/07/16 13:01:50;;;;;;;;;;;;;;;;;;5069807;28;20286;-71
2023/07/16 13:04:17;;;;;;;;;;;;;;;;;;5069270;28;19929;-70
2023/07/16 13:06:47;;;;;;;;;;;;;;;;;;5070063;28;20390;-70
2023/07/16 13:09:13;;;;;;;;;;;;;;;;;;5070539;28;19965;-69
2023/07/16 13:11:39;;;;;;;;;;;;;;;;;;5069695;28;19925;-70
2023/07/16 13:14:07;;;;;;;;;;;;;;;;;;5070442;28;20419;-69
2023/07/16 13:16:34;;;;;;;;;;;;;;;;;;5069737;28;19931;-70
2023/07/16 13:19:00;;;;;;;;;;;;;;;;;;5070440;28;20360;-70
2023/07/16 13:21:26;;;;;;;;;;;;;;;;;;5071544;28;19924;-70
2023/07/16 13:23:53;;;;;;;;;;;;;;;;;;5073570;28;19931;-70
2023/07/16 13:26:19;;;;;;;;;;;;;;;;;;5073786;28;19931;-70
2023/07/16 13:28:45;;;;;;;;;;;;;;;;;;5073289;28;19924;-70
2023/07/16 13:31:13;;;;;;;;;;;;;;;;;;5073607;28;20432;-70
2023/07/16 13:33:40;;;;;;;;;;;;;;;;;;5073539;28;19924;-69
2023/07/16 13:36:06;;;;;;;;;;;;;;;;;;5073457;28;20441;-69
2023/07/16 13:38:32;;;;;;;;;;;;;;;;;;5073048;28;19931;-69
2023/07/16 13:40:59;;;;;;;;;;;;;;;;;;5073220;28;20452;-69
2023/07/16 13:43:25;;;;;;;;;;;;;;;;;;5072981;28;20263;-71
2023/07/16 13:45:52;;;;;;;;;;;;;;;;;;5073504;28;19934;-70
2023/07/16 13:48:19;;;;;;;;;;;;;;;;;;5072985;28;19924;-69
2023/07/16 13:50:46;;;;;;;;;;;;;;;;;;5073010;28;19925;-69
2023/07/16 13:53:12;;;;;;;;;;;;;;;;;;5073035;28;19931;-70
2023/07/16 13:55:38;;;;;;;;;;;;;;;;;;5073077;28;19924;-70
2023/07/16 13:58:05;;;;;;;;;;;;;;;;;;5073390;28;19928;-69
2023/07/16 14:00:31;;;;;;;;;;;;;;;;;;5072479;28;19924;-69
2023/07/16 14:02:57;;;;;;;;;;;;;;;;;;5073090;28;19928;-70
2023/07/16 14:05:26;;;;;;;;;;;;;;;;;;5073027;28;20404;-69
2023/07/16 14:07:53;;;;;;;;;;;;;;;;;;5072622;28;20034;-69
2023/07/16 14:10:20;;;;;;;;;;;;;;;;;;5072283;28;20021;-69
2023/07/16 14:12:46;;;;;;;;;;;;;;;;;;5073153;28;19924;-69
2023/07/16 14:15:12;;;;;;;;;;;;;;;;;;5072513;28;19930;-69
2023/07/16 14:17:39;;;;;;;;;;;;;;;;;;5073042;28;20374;-69
2023/07/16 14:20:06;;;;;;;;;;;;;;;;;;5072384;28;20277;-69
2023/07/16 14:22:34;;;;;;;;;;;;;;;;;;5072655;28;19947;-72
2023/07/16 14:25:00;;;;;;;;;;;;;;;;;;5072586;28;20449;-70
2023/07/16 14:27:27;;;;;;;;;;;;;;;;;;5072473;28;19924;-70
2023/07/16 14:29:53;;;;;;;;;;;;;;;;;;5072163;28;20027;-70
2023/07/16 14:32:19;;;;;;;;;;;;;;;;;;5071883;28;19951;-70
2023/07/16 14:34:46;;;;;;;;;;;;;;;;;;5072241;28;19930;-69
2023/07/16 14:37:13;;;;;;;;;;;;;;;;;;5071902;28;20304;-69
2023/07/16 14:39:41;;;;;;;;;;;;;;;;;;5071843;28;19944;-69
2023/07/16 14:42:07;;;;;;;;;;;;;;;;;;5071833;28;19931;-70
2023/07/16 14:44:33;;;;;;;;;;;;;;;;;;5071977;28;19924;-70
2023/07/16 14:47:00;;;;;;;;;;;;;;;;;;5071682;28;19947;-69
2023/07/16 14:49:26;;;;;;;;;;;;;;;;;;5071917;28;20426;-71
2023/07/16 14:51:53;;;;;;;;;;;;;;;;;;5071410;28;19925;-69
2023/07/16 14:54:19;;;;;;;;;;;;;;;;;;5071980;28;19928;-70
2023/07/16 14:56:47;;;;;;;;;;;;;;;;;;5071586;28;20335;-70
2023/07/16 14:59:14;;;;;;;;;;;;;;;;;;5072100;28;19924;-71
2023/07/16 15:01:40;;;;;;;;;;;;;;;;;;5071273;28;19924;-71
2023/07/16 15:04:06;;;;;;;;;;;;;;;;;;5071423;28;19928;-70
2023/07/16 15:06:33;;;;;;;;;;;;;;;;;;5071536;28;20285;-70
2023/07/16 15:08:59;;;;;;;;;;;;;;;;;;5071332;28;19931;-70
2023/07/16 15:11:25;;;;;;;;;;;;;;;;;;5070042;28;19931;-70
2023/07/16 15:13:53;;;;;;;;;;;;;;;;;;5071925;28;20420;-71
2023/07/16 15:16:20;;;;;;;;;;;;;;;;;;5072174;28;19929;-72
2023/07/16 15:18:46;;;;;;;;;;;;;;;;;;5071252;28;19931;-71
2023/07/16 15:21:13;;;;;;;;;;;;;;;;;;5071034;28;20129;-70
2023/07/16 15:23:42;;;;;;;;;;;;;;;;;;5071275;28;19925;-70
2023/07/16 15:26:11;;;;;;;;;;;;;;;;;;5071389;28;19932;-72
2023/07/16 15:28:38;;;;;;;;;;;;;;;;;;5070998;28;19964;-70
2023/07/16 15:31:05;;;;;;;;;;;;;;;;;;5071024;28;19931;-70
2023/07/16 15:33:33;;;;;;;;;;;;;;;;;;5071268;28;19924;-72
2023/07/16 15:36:00;;;;;;;;;;;;;;;;;;5071010;28;20024;-70
2023/07/16 15:38:26;;;;;;;;;;;;;;;;;;5071407;28;20383;-71
2023/07/16 15:40:52;;;;;;;;;;;;;;;;;;5070733;28;19924;-71
2023/07/16 15:43:19;;;;;;;;;;;;;;;;;;5071114;28;19936;-70
2023/07/16 15:45:45;;;;;;;;;;;;;;;;;;5070764;28;20388;-71
2023/07/16 15:48:14;;;;;;;;;;;;;;;;;;5084643;22;19924;-67
2023/07/16 15:50:41;;;;;;;;;;;;;;;;;;5050416;28;19924;-67
2023/07/16 15:53:07;;;;;;;;;;;;;;;;;;5051505;28;20309;-67
2023/07/16 15:55:34;;;;;;;;;;;;;;;;;;5051016;28;19929;-67
2023/07/16 15:58:01;;;;;;;;;;;;;;;;;;5050944;28;19924;-67
2023/07/16 16:00:28;;;;;;;;;;;;;;;;;;5050447;28;19925;-67
2023/07/16 16:02:55;;;;;;;;;;;;;;;;;;5051395;28;19924;-67
2023/07/16 16:05:23;;;;;;;;;;;;;;;;;;5051020;28;20406;-67
2023/07/16 16:08:04;;;;;;;;;;;;;;;;;;5051755;28;19925;-67
2023/07/16 16:10:31;;;;;;;;;;;;;;;;;;5049436;28;19925;-67
2023/07/16 16:12:57;;;;;;;;;;;;;;;;;;5050243;28;19943;-68
2023/07/16 16:15:24;;;;;;;;;;;;;;;;;;5051071;28;19925;-67
2023/07/16 16:17:50;;;;;;;;;;;;;;;;;;5050308;28;19970;-67
2023/07/16 16:20:17;;;;;;;;;;;;;;;;;;5050736;28;19936;-67
2023/07/16 16:22:45;;;;;;;;;;;;;;;;;;5050529;28;19924;-67
2023/07/16 16:25:11;;;;;;;;;;;;;;;;;;5051337;28;20263;-67
2023/07/16 16:27:38;;;;;;;;;;;;;;;;;;5050375;28;19977;-67
2023/07/16 16:30:05;;;;;;;;;;;;;;;;;;5050232;28;19983;-67
2023/07/16 16:32:32;;;;;;;;;;;;;;;;;;5050310;28;19924;-67
2023/07/16 16:34:58;;;;;;;;;;;;;;;;;;5051004;28;19929;-67
2023/07/16 16:37:25;;;;;;;;;;;;;;;;;;5050284;28;19925;-67
2023/07/16 16:39:53;;;;;;;;;;;;;;;;;;5049844;28;19935;-67
2023/07/16 16:42:19;;;;;;;;;;;;;;;;;;5049468;28;20019;-67
2023/07/16 16:44:46;;;;;;;;;;;;;;;;;;5050341;28;19925;-67